Time;durP1;ratioP1;P1;durP2;ratioP2;P2;SDS_P1;SDS_P2;PMS_P1;PMS_P2;Temp;Humidity;BMP_temperature;BMP_pressure;BME280_temperature;BME280_humidity;BME280_pressure;Samples;Min_cycle;Max_cycle;Signal;HPM_P1;HPM_P2
2023/03/27 00:01:32;;;;;;;2.90;1.20;;;3.20;99.90;;;;;;4987974;28;20489;-66
2023/03/27 00:04:00;;;;;;;2.00;1.23;;;3.10;99.90;;;;;;4991729;28;21013;-68
2023/03/27 00:06:29;;;;;;;1.83;1.50;;;3.10;99.90;;;;;;4982054;28;20477;-71
2023/03/27 00:08:57;;;;;;;1.43;1.20;;;3.10;99.90;;;;;;4987080;28;20476;-68
2023/03/27 00:11:25;;;;;;;3.17;1.10;;;3.10;99.90;;;;;;4988673;28;20493;-68
2023/03/27 00:13:53;;;;;;;2.70;1.40;;;3.10;99.90;;;;;;4983963;28;20489;-68
2023/03/27 00:16:25;;;;;;;3.30;1.60;;;3.00;99.90;;;;;;4979543;28;20472;-69
2023/03/27 00:18:54;;;;;;;5.27;1.47;;;3.00;99.90;;;;;;4988515;28;21822;-68
2023/03/27 00:21:22;;;;;;;2.27;1.20;;;3.00;99.90;;;;;;4983483;28;21412;-68
2023/03/27 00:23:50;;;;;;;2.90;1.60;;;3.00;99.90;;;;;;4985248;28;20581;-68
2023/03/27 00:26:20;;;;;;;4.63;1.60;;;3.00;99.90;;;;;;4985804;28;20469;-67
2023/03/27 00:28:48;;;;;;;2.90;1.30;;;2.90;99.90;;;;;;4984616;28;20473;-68
2023/03/27 00:31:16;;;;;;;5.77;1.87;;;2.90;99.90;;;;;;4980604;28;20871;-68
2023/03/27 00:33:46;;;;;;;2.30;1.07;;;2.90;99.90;;;;;;4988523;28;20500;-67
2023/03/27 00:36:14;;;;;;;2.50;1.10;;;2.90;99.90;;;;;;4987567;28;20477;-68
2023/03/27 00:38:44;;;;;;;2.50;1.13;;;2.80;99.90;;;;;;4987182;28;20472;-68
2023/03/27 00:41:12;;;;;;;5.80;1.63;;;2.80;99.90;;;;;;4988035;28;20492;-68
2023/03/27 00:43:42;;;;;;;3.77;1.30;;;2.80;99.90;;;;;;4984820;28;20477;-68
2023/03/27 00:46:30;;;;;;;2.90;2.40;;;2.80;99.90;;;;;;4987825;28;20469;-66
2023/03/27 00:49:03;;;;;;;3.03;1.50;;;2.80;99.90;;;;;;4988615;28;20551;-68
2023/03/27 00:51:32;;;;;;;2.90;1.50;;;2.80;99.90;;;;;;4984598;28;20503;-69
2023/03/27 00:54:00;;;;;;;4.23;1.20;;;2.80;99.90;;;;;;4979157;28;20493;-68
2023/03/27 00:56:29;;;;;;;2.40;1.40;;;2.80;99.90;;;;;;4982107;28;22354;-68
2023/03/27 00:59:00;;;;;;;3.30;1.63;;;2.80;99.90;;;;;;4985711;28;20495;-69
2023/03/27 01:01:30;;;;;;;6.50;1.10;;;2.80;99.90;;;;;;4983978;28;20556;-68
2023/03/27 01:04:02;;;;;;;2.37;1.30;;;2.80;99.90;;;;;;4981068;28;20559;-67
2023/03/27 01:06:31;;;;;;;2.43;1.30;;;2.70;99.90;;;;;;4974756;28;20465;-70
2023/03/27 01:08:59;;;;;;;2.87;1.47;;;2.70;99.90;;;;;;4979305;28;20486;-68
2023/03/27 01:11:38;;;;;;;2.00;1.40;;;2.70;99.90;;;;;;4974037;28;20492;-67
2023/03/27 01:14:15;;;;;;;3.43;1.43;;;2.60;99.90;;;;;;4958483;28;20496;-67
2023/03/27 01:16:52;;;;;;;1.73;1.17;;;2.60;99.90;;;;;;4962726;28;20978;-68
2023/03/27 01:19:53;;;;;;;4.60;1.57;;;2.50;99.90;;;;;;4959222;28;20480;-68
2023/03/27 01:22:41;;;;;;;3.60;1.50;;;2.50;99.90;;;;;;4963482;28;20503;-68
2023/03/27 01:25:42;;;;;;;1.93;1.43;;;2.50;99.90;;;;;;4980553;28;20477;-68
2023/03/27 01:28:31;;;;;;;2.37;1.20;;;2.50;99.90;;;;;;4985237;28;20479;-68
2023/03/27 01:31:10;;;;;;;1.93;1.17;;;2.50;99.90;;;;;;4985221;28;20492;-68
2023/03/27 01:34:14;;;;;;;5.37;1.20;;;2.50;99.90;;;;;;4991772;28;20782;-67
2023/03/27 01:37:13;;;;;;;1.67;1.00;;;2.50;99.90;;;;;;4988791;28;20473;-68
2023/03/27 01:39:52;;;;;;;4.73;1.33;;;2.40;99.90;;;;;;4989468;28;20496;-68
2023/03/27 01:42:25;;;;;;;2.97;1.17;;;2.40;99.90;;;;;;4985044;28;20704;-68
2023/03/27 01:45:00;;;;;;;3.63;1.30;;;2.40;99.90;;;;;;4990922;28;20847;-68
2023/03/27 01:47:41;;;;;;;2.80;1.40;;;2.40;99.90;;;;;;4996056;28;20476;-68
2023/03/27 01:50:18;;;;;;;3.60;1.57;;;2.40;99.90;;;;;;4996033;28;20506;-66
2023/03/27 01:52:53;;;;;;;2.70;1.40;;;2.40;99.90;;;;;;4990214;28;20495;-67
2023/03/27 01:55:29;;;;;;;1.47;1.30;;;2.30;99.90;;;;;;4986782;28;20497;-68
2023/03/27 01:58:02;;;;;;;3.67;1.40;;;2.30;99.90;;;;;;4988243;28;20472;-67
2023/03/27 02:00:31;;;;;;;4.17;1.60;;;2.30;99.90;;;;;;4980828;28;20493;-67
2023/03/27 02:03:23;;;;;;;2.40;1.20;;;2.30;99.90;;;;;;4987734;28;20535;-68
2023/03/27 02:05:57;;;;;;;3.53;1.90;;;2.30;99.90;;;;;;4988950;28;20904;-68
2023/03/27 02:08:31;;;;;;;3.47;1.40;;;2.30;99.90;;;;;;4988914;28;20473;-68
2023/03/27 02:11:00;;;;;;;3.63;1.50;;;2.30;99.90;;;;;;4987647;28;20492;-68
2023/03/27 02:13:33;;;;;;;3.17;1.10;;;2.30;99.90;;;;;;4991400;28;20576;-70
2023/03/27 02:16:02;;;;;;;2.70;1.30;;;2.30;99.90;;;;;;4990802;28;20783;-68
2023/03/27 02:18:35;;;;;;;1.97;1.10;;;2.30;99.90;;;;;;4993180;28;20485;-68
2023/03/27 02:21:05;;;;;;;3.83;1.50;;;2.20;99.90;;;;;;4994004;28;20492;-68
2023/03/27 02:23:36;;;;;;;2.40;1.43;;;2.30;99.90;;;;;;4990844;28;20519;-68
2023/03/27 02:26:06;;;;;;;5.10;1.40;;;2.20;99.90;;;;;;4984423;28;20473;-67
2023/03/27 02:28:48;;;;;;;1.63;1.40;;;2.20;99.90;;;;;;4991979;28;20496;-67
2023/03/27 02:31:30;;;;;;;2.23;1.40;;;2.20;99.90;;;;;;4985603;28;20508;-68
2023/03/27 02:34:28;;;;;;;1.00;0.90;;;2.20;99.90;;;;;;4969973;28;20521;-67
2023/03/27 02:37:04;;;;;;;4.23;1.40;;;2.20;99.90;;;;;;4967266;28;20470;-67
2023/03/27 02:39:38;;;;;;;2.37;1.20;;;2.20;99.90;;;;;;4965935;28;20512;-67
2023/03/27 02:42:11;;;;;;;2.10;1.43;;;2.20;99.90;;;;;;4974809;28;20503;-68
2023/03/27 02:44:44;;;;;;;6.53;1.50;;;2.20;99.90;;;;;;4985844;28;20476;-68
2023/03/27 02:47:18;;;;;;;4.10;1.30;;;2.20;99.90;;;;;;4987522;28;20465;-68
2023/03/27 02:49:51;;;;;;;4.40;2.67;;;2.20;99.90;;;;;;4983341;28;20500;-68
2023/03/27 02:52:24;;;;;;;3.20;1.50;;;2.20;99.90;;;;;;4977606;28;20499;-66
2023/03/27 02:54:58;;;;;;;1.37;0.97;;;2.20;99.90;;;;;;4981462;28;20489;-68
2023/03/27 02:57:30;;;;;;;3.30;1.40;;;2.20;99.90;;;;;;4988399;28;20500;-68
2023/03/27 03:00:12;;;;;;;2.43;1.20;;;2.20;99.90;;;;;;4981521;28;20489;-68
2023/03/27 03:02:40;;;;;;;5.73;1.60;;;2.20;99.90;;;;;;4976540;28;20492;-68
2023/03/27 03:05:16;;;;;;;4.90;1.30;;;2.20;99.90;;;;;;4974904;28;22593;-68
2023/03/27 03:07:45;;;;;;;4.80;1.80;;;2.20;99.90;;;;;;4978452;28;20475;-69
2023/03/27 03:10:13;;;;;;;4.00;1.73;;;2.10;99.90;;;;;;4978581;28;20495;-68
2023/03/27 03:12:43;;;;;;;1.90;1.27;;;2.10;99.90;;;;;;4973027;28;20497;-68
2023/03/27 03:15:11;;;;;;;4.20;2.13;;;2.10;99.90;;;;;;4958397;28;20498;-68
2023/03/27 03:17:39;;;;;;;3.17;1.40;;;2.10;99.90;;;;;;4962652;28;20481;-68
2023/03/27 03:20:09;;;;;;;1.60;1.30;;;2.10;99.90;;;;;;4966469;28;20495;-69
2023/03/27 03:22:38;;;;;;;2.83;1.60;;;2.00;99.90;;;;;;4969158;28;20501;-67
2023/03/27 03:25:07;;;;;;;3.47;1.90;;;2.00;99.90;;;;;;4979453;28;20532;-68
2023/03/27 03:27:36;;;;;;;2.30;1.63;;;2.00;99.90;;;;;;4978985;28;20901;-69
2023/03/27 03:30:08;;;;;;;5.00;1.30;;;2.00;99.90;;;;;;4984582;28;20500;-68
2023/03/27 03:32:36;;;;;;;6.37;1.67;;;2.00;99.90;;;;;;4986827;28;20535;-68
2023/03/27 03:35:05;;;;;;;1.90;1.77;;;2.00;99.90;;;;;;4985055;28;20504;-68
2023/03/27 03:37:37;;;;;;;2.97;1.40;;;2.00;99.90;;;;;;4982586;28;20473;-67
2023/03/27 03:40:10;;;;;;;2.63;2.13;;;2.00;99.90;;;;;;4990219;28;20503;-68
2023/03/27 03:42:44;;;;;;;2.80;1.20;;;2.00;99.90;;;;;;4987057;28;20497;-68
2023/03/27 03:45:14;;;;;;;2.40;1.53;;;2.00;99.90;;;;;;4986266;28;20477;-68
2023/03/27 03:47:43;;;;;;;4.97;1.60;;;2.00;99.90;;;;;;4985671;28;20469;-68
2023/03/27 03:50:12;;;;;;;3.60;1.20;;;1.90;99.90;;;;;;4990679;28;20517;-68
2023/03/27 03:52:40;;;;;;;4.00;1.90;;;1.90;99.90;;;;;;4980988;28;20524;-68
2023/03/27 03:55:10;;;;;;;2.23;1.40;;;1.90;99.90;;;;;;4962588;28;20569;-68
2023/03/27 03:57:39;;;;;;;3.30;1.53;;;1.90;99.90;;;;;;4964267;28;20469;-68
2023/03/27 04:00:10;;;;;;;4.40;1.80;;;1.90;99.90;;;;;;4969556;28;20505;-68
2023/03/27 04:02:40;;;;;;;3.87;2.13;;;1.90;99.90;;;;;;4970049;28;20585;-68
2023/03/27 04:05:09;;;;;;;3.63;1.80;;;1.90;99.90;;;;;;4965114;28;20979;-68
2023/03/27 04:07:39;;;;;;;3.80;1.40;;;1.90;99.90;;;;;;4967139;28;20498;-68
2023/03/27 04:10:08;;;;;;;3.80;1.60;;;1.90;99.90;;;;;;4963040;28;20489;-66
2023/03/27 04:12:36;;;;;;;2.47;1.60;;;1.90;99.90;;;;;;4963454;28;20538;-68
2023/03/27 04:15:06;;;;;;;5.50;1.80;;;1.90;99.90;;;;;;4959672;28;21433;-72
2023/03/27 04:17:33;;;;;;;1.93;1.40;;;1.90;99.90;;;;;;4966649;28;20482;-68
2023/03/27 04:20:05;;;;;;;4.93;2.07;;;1.90;99.90;;;;;;4964064;28;20498;-67
2023/03/27 04:22:36;;;;;;;4.67;2.77;;;1.90;99.90;;;;;;4960046;28;20857;-67
2023/03/27 04:25:05;;;;;;;5.90;1.93;;;1.90;99.90;;;;;;4961027;28;20481;-68
2023/03/27 04:27:34;;;;;;;2.80;1.83;;;1.90;99.90;;;;;;4964904;28;20470;-68
2023/03/27 04:30:02;;;;;;;2.80;1.83;;;1.90;99.90;;;;;;4959556;28;20494;-67
2023/03/27 04:32:30;;;;;;;7.60;2.60;;;1.90;99.90;;;;;;4957237;28;21039;-67
2023/03/27 04:34:59;;;;;;;3.27;2.10;;;1.90;99.90;;;;;;4962651;28;21094;-69
2023/03/27 04:37:29;;;;;;;4.20;2.10;;;1.90;99.90;;;;;;4960145;28;20880;-71
2023/03/27 04:39:59;;;;;;;5.77;2.33;;;1.90;99.90;;;;;;4964798;28;20943;-67
2023/03/27 04:42:27;;;;;;;4.10;2.37;;;1.80;99.90;;;;;;4952012;28;20500;-67
2023/03/27 04:44:55;;;;;;;6.00;2.57;;;1.80;99.90;;;;;;4967099;28;20473;-68
2023/03/27 04:47:24;;;;;;;4.27;1.97;;;1.80;99.90;;;;;;4963999;28;20993;-68
2023/03/27 04:49:52;;;;;;;3.40;2.30;;;1.80;99.90;;;;;;4958930;28;20494;-68
2023/03/27 04:52:20;;;;;;;4.83;2.40;;;1.80;99.90;;;;;;4959311;28;20521;-68
2023/03/27 04:54:49;;;;;;;4.00;2.53;;;1.80;99.90;;;;;;4957914;28;22514;-68
2023/03/27 04:57:20;;;;;;;4.63;2.63;;;1.80;99.90;;;;;;4959429;28;20477;-68
2023/03/27 04:59:49;;;;;;;6.23;2.43;;;1.80;99.90;;;;;;4961503;28;20951;-67
2023/03/27 05:02:17;;;;;;;4.80;2.50;;;1.80;99.90;;;;;;4947241;28;21026;-67
2023/03/27 05:04:45;;;;;;;4.77;4.03;;;1.80;99.90;;;;;;4952863;28;20485;-67
2023/03/27 05:07:13;;;;;;;3.83;2.07;;;1.80;99.90;;;;;;4956560;28;21010;-68
2023/03/27 05:09:41;;;;;;;2.50;2.20;;;1.80;99.90;;;;;;4954984;28;20874;-69
2023/03/27 05:12:10;;;;;;;2.90;2.50;;;1.80;99.90;;;;;;4950656;28;20490;-67
2023/03/27 05:14:38;;;;;;;5.63;2.63;;;1.80;99.90;;;;;;4963327;28;20481;-68
2023/03/27 05:17:06;;;;;;;3.63;2.40;;;1.80;99.90;;;;;;4950487;28;20509;-68
2023/03/27 05:19:36;;;;;;;3.93;1.90;;;1.80;99.90;;;;;;4948833;28;20506;-68
2023/03/27 05:22:04;;;;;;;6.30;2.10;;;1.80;99.90;;;;;;4955643;28;20484;-67
2023/03/27 05:24:32;;;;;;;5.97;2.13;;;1.80;99.90;;;;;;4961524;28;20972;-67
2023/03/27 05:27:00;;;;;;;4.10;1.97;;;1.80;99.90;;;;;;4951751;28;20478;-67
2023/03/27 05:29:30;;;;;;;3.37;2.13;;;1.80;99.90;;;;;;4943502;28;21492;-67
2023/03/27 05:32:14;;;;;;;2.97;2.53;;;1.90;99.90;;;;;;4945292;28;20516;-67
2023/03/27 05:34:42;;;;;;;2.70;2.40;;;1.90;99.90;;;;;;4938490;28;21015;-67
2023/03/27 05:37:10;;;;;;;4.33;2.30;;;1.90;99.90;;;;;;4936476;28;20633;-69
2023/03/27 05:39:40;;;;;;;3.50;2.00;;;1.90;99.90;;;;;;4941433;28;20603;-68
2023/03/27 05:42:07;;;;;;;4.40;2.00;;;2.00;99.90;;;;;;4944044;28;21566;-71
2023/03/27 05:44:37;;;;;;;3.03;1.73;;;2.00;99.90;;;;;;4956669;28;20480;-68
2023/03/27 05:47:05;;;;;;;5.30;2.37;;;2.00;99.90;;;;;;4942821;28;20478;-67
2023/03/27 05:49:33;;;;;;;2.70;2.00;;;2.00;99.90;;;;;;4935128;28;20494;-67
2023/03/27 05:52:01;;;;;;;3.53;2.20;;;2.10;99.90;;;;;;4929331;28;20498;-67
2023/03/27 05:54:29;;;;;;;3.83;2.20;;;2.10;99.90;;;;;;4947126;28;20506;-67
2023/03/27 05:56:57;;;;;;;3.70;1.57;;;2.10;99.90;;;;;;4953749;28;20501;-68
2023/03/27 05:59:25;;;;;;;3.90;1.63;;;2.10;99.90;;;;;;4950644;28;20505;-68
2023/03/27 06:01:57;;;;;;;3.77;1.97;;;2.20;99.90;;;;;;4951586;28;21167;-67
2023/03/27 06:04:27;;;;;;;5.57;2.80;;;2.20;99.90;;;;;;4947257;28;21047;-68
2023/03/27 06:06:55;;;;;;;4.70;2.73;;;2.20;99.90;;;;;;4952084;28;20477;-68
2023/03/27 06:09:24;;;;;;;3.60;1.70;;;2.20;99.90;;;;;;4952275;28;20469;-68
2023/03/27 06:11:52;;;;;;;4.97;2.17;;;2.30;99.90;;;;;;4961240;28;20478;-67
2023/03/27 06:14:20;;;;;;;2.20;1.43;;;2.30;99.90;;;;;;4946784;28;20477;-67
2023/03/27 06:16:48;;;;;;;4.57;2.00;;;2.40;99.90;;;;;;4959578;28;21097;-68
2023/03/27 06:19:17;;;;;;;3.80;1.93;;;2.40;99.90;;;;;;4959438;28;20521;-68
2023/03/27 06:21:45;;;;;;;4.77;2.50;;;2.40;99.90;;;;;;4954896;28;20971;-70
2023/03/27 06:24:13;;;;;;;4.97;2.00;;;2.50;99.90;;;;;;4959694;28;20473;-68
2023/03/27 06:26:41;;;;;;;5.27;2.60;;;2.50;99.90;;;;;;4960181;28;20474;-68
2023/03/27 06:29:09;;;;;;;4.93;2.33;;;2.50;99.90;;;;;;4953477;28;20469;-67
2023/03/27 06:31:37;;;;;;;4.80;2.50;;;2.60;99.90;;;;;;4946940;28;20492;-67
2023/03/27 06:34:09;;;;;;;5.40;2.00;;;2.60;99.90;;;;;;4946599;28;20466;-68
2023/03/27 06:36:39;;;;;;;5.83;1.90;;;2.70;99.90;;;;;;4941080;28;20518;-67
2023/03/27 06:39:08;;;;;;;3.47;2.03;;;2.70;99.90;;;;;;4950387;28;20616;-67
2023/03/27 06:41:36;;;;;;;4.50;1.97;;;2.90;99.90;;;;;;4947065;28;20497;-67
2023/03/27 06:44:04;;;;;;;3.00;1.73;;;3.10;99.90;;;;;;4945217;28;20474;-67
2023/03/27 06:46:32;;;;;;;3.50;1.90;;;3.40;99.90;;;;;;4945391;28;20495;-68
2023/03/27 06:49:12;;;;;;;6.13;2.10;;;3.90;99.90;;;;;;4943642;28;20583;-67
2023/03/27 06:51:41;;;;;;;2.80;1.80;;;4.10;99.90;;;;;;4945882;28;20813;-68
2023/03/27 06:54:11;;;;;;;2.53;1.57;;;4.10;99.90;;;;;;4952177;28;20477;-68
2023/03/27 06:56:39;;;;;;;2.27;1.47;;;4.00;99.90;;;;;;4960752;28;20516;-68
2023/03/27 06:59:07;;;;;;;5.13;2.27;;;3.80;99.90;;;;;;4962351;28;20569;-68
2023/03/27 07:01:35;;;;;;;4.07;1.60;;;3.60;99.90;;;;;;4958255;28;22655;-67
2023/03/27 07:04:05;;;;;;;3.63;2.50;;;3.50;99.90;;;;;;4955351;28;20488;-68
2023/03/27 07:06:33;;;;;;;3.87;1.83;;;3.40;99.90;;;;;;4963871;28;20466;-67
2023/03/27 07:09:02;;;;;;;5.17;1.60;;;3.30;99.90;;;;;;4969909;28;20983;-68
2023/03/27 07:11:30;;;;;;;4.93;1.97;;;3.20;99.90;;;;;;4964764;28;20513;-68
2023/03/27 07:13:59;;;;;;;4.67;1.97;;;3.20;99.90;;;;;;4947217;28;20495;-68
2023/03/27 07:16:27;;;;;;;5.30;2.10;;;3.10;99.90;;;;;;4964261;28;20621;-68
2023/03/27 07:18:56;;;;;;;2.20;1.90;;;3.20;99.90;;;;;;4970102;28;20473;-68
2023/03/27 07:21:27;;;;;;;5.90;2.47;;;3.30;99.90;;;;;;4957545;28;20490;-67
2023/03/27 07:23:54;;;;;;;4.33;2.43;;;3.30;99.90;;;;;;4963258;28;20497;-68
2023/03/27 07:26:24;;;;;;;4.87;2.40;;;3.40;99.90;;;;;;4960369;28;20478;-69
2023/03/27 07:28:53;;;;;;;2.97;2.40;;;3.40;99.90;;;;;;4967388;28;20466;-67
2023/03/27 07:31:21;;;;;;;5.20;2.03;;;3.40;99.90;;;;;;4965771;28;20493;-69
2023/03/27 07:33:52;;;;;;;2.73;2.27;;;3.50;99.90;;;;;;4968446;28;20490;-68
2023/03/27 07:36:21;;;;;;;3.40;2.60;;;3.60;99.90;;;;;;4963051;28;20481;-71
2023/03/27 07:38:49;;;;;;;6.00;2.27;;;3.60;99.90;;;;;;4956371;28;20478;-68
2023/03/27 07:41:18;;;;;;;3.07;1.87;;;3.60;99.90;;;;;;4965086;28;21027;-69
2023/03/27 07:43:47;;;;;;;3.20;1.80;;;3.70;99.90;;;;;;4955544;28;20493;-68
2023/03/27 07:46:15;;;;;;;2.93;1.60;;;3.80;99.90;;;;;;4968876;28;20473;-69
2023/03/27 07:48:44;;;;;;;2.03;1.77;;;3.80;99.90;;;;;;4965522;28;20473;-68
2023/03/27 07:51:12;;;;;;;3.97;1.80;;;3.80;99.90;;;;;;4960742;28;23409;-68
2023/03/27 07:53:42;;;;;;;5.23;1.87;;;3.90;99.90;;;;;;4975957;28;21059;-68
2023/03/27 07:56:10;;;;;;;2.07;1.40;;;3.90;99.90;;;;;;4986200;28;20491;-69
2023/03/27 07:58:39;;;;;;;3.70;1.70;;;3.90;99.90;;;;;;4985069;28;20868;-69
2023/03/27 08:01:10;;;;;;;2.53;1.50;;;4.00;99.90;;;;;;4985109;28;20504;-68
2023/03/27 08:03:38;;;;;;;3.47;1.57;;;4.00;99.90;;;;;;4975558;28;21492;-69
2023/03/27 08:06:07;;;;;;;1.93;1.33;;;4.10;99.90;;;;;;4989623;28;20477;-69
2023/03/27 08:08:35;;;;;;;2.40;1.23;;;4.10;99.90;;;;;;4974833;28;20484;-68
2023/03/27 08:11:03;;;;;;;2.87;1.30;;;4.20;99.90;;;;;;4987613;28;20504;-69
2023/03/27 08:13:31;;;;;;;3.80;1.40;;;4.20;99.90;;;;;;4971988;28;20562;-67
2023/03/27 08:16:05;;;;;;;3.13;1.50;;;4.30;99.90;;;;;;4987816;28;20920;-68
2023/03/27 08:18:35;;;;;;;2.87;1.60;;;4.40;99.90;;;;;;4982242;28;20746;-68
2023/03/27 08:21:04;;;;;;;2.87;1.30;;;4.50;99.90;;;;;;4984304;28;20584;-68
2023/03/27 08:23:33;;;;;;;3.40;1.37;;;4.60;99.90;;;;;;4982048;28;21249;-68
2023/03/27 08:26:01;;;;;;;1.90;1.50;;;4.70;99.90;;;;;;4987216;28;20488;-69
2023/03/27 08:28:30;;;;;;;1.83;1.00;;;4.70;99.90;;;;;;4987727;28;20465;-69
2023/03/27 08:30:58;;;;;;;1.40;1.10;;;4.80;99.90;;;;;;4986100;28;20494;-67
2023/03/27 08:33:30;;;;;;;2.17;0.97;;;4.80;99.90;;;;;;4979923;28;20580;-69
2023/03/27 08:35:59;;;;;;;3.63;1.30;;;4.90;99.90;;;;;;4984518;28;20584;-67
2023/03/27 08:38:31;;;;;;;5.00;2.13;;;4.90;99.90;;;;;;4982618;28;20493;-67
2023/03/27 08:41:02;;;;;;;5.30;1.23;;;5.00;99.90;;;;;;4986988;28;20497;-68
2023/03/27 08:43:36;;;;;;;3.43;1.30;;;5.00;99.90;;;;;;4985304;28;20927;-68
2023/03/27 08:46:08;;;;;;;5.23;1.20;;;5.10;99.90;;;;;;4985953;28;20477;-68
2023/03/27 08:48:43;;;;;;;2.83;1.93;;;5.20;99.90;;;;;;4986690;28;20476;-68
2023/03/27 08:51:18;;;;;;;3.00;1.10;;;5.20;99.90;;;;;;4977083;28;20493;-67
2023/03/27 08:53:51;;;;;;;3.53;1.00;;;5.20;99.90;;;;;;4984123;28;20492;-68
2023/03/27 08:56:20;;;;;;;2.10;1.10;;;5.30;99.90;;;;;;4989655;28;20469;-68
2023/03/27 08:58:49;;;;;;;3.97;1.40;;;5.30;99.90;;;;;;4985620;28;20500;-68
2023/03/27 09:01:23;;;;;;;2.23;0.93;;;5.30;99.90;;;;;;4987377;28;20891;-68
2023/03/27 09:03:57;;;;;;;3.70;1.20;;;5.40;99.90;;;;;;4995849;28;20512;-67
2023/03/27 09:06:36;;;;;;;3.53;1.20;;;5.40;99.90;;;;;;4985378;28;20468;-69
2023/03/27 09:09:11;;;;;;;2.40;1.00;;;5.60;99.90;;;;;;4976058;28;20853;-68
2023/03/27 09:11:50;;;;;;;4.50;1.10;;;5.70;99.90;;;;;;4979403;28;20526;-68
2023/03/27 09:14:29;;;;;;;2.50;1.17;;;5.80;99.90;;;;;;4987637;28;20473;-68
2023/03/27 09:17:04;;;;;;;2.33;1.50;;;5.90;99.90;;;;;;4985199;28;20997;-67
2023/03/27 09:19:42;;;;;;;2.30;1.20;;;5.90;99.90;;;;;;4987368;28;20837;-68
2023/03/27 09:22:16;;;;;;;5.67;1.37;;;6.00;99.90;;;;;;4978143;28;21435;-68
2023/03/27 09:24:47;;;;;;;2.33;1.20;;;6.10;99.90;;;;;;4968960;28;20474;-68
2023/03/27 09:27:20;;;;;;;4.63;1.40;;;6.10;99.90;;;;;;4960504;28;20530;-69
2023/03/27 09:29:56;;;;;;;3.60;1.07;;;6.10;99.90;;;;;;4956727;28;20494;-68
2023/03/27 09:32:33;;;;;;;4.33;1.53;;;6.10;99.90;;;;;;4967566;28;20493;-67
2023/03/27 09:35:03;;;;;;;2.73;1.20;;;6.10;99.90;;;;;;4962323;28;21001;-67
2023/03/27 09:37:33;;;;;;;1.20;1.10;;;6.10;99.90;;;;;;4966088;28;20500;-72
2023/03/27 09:40:06;;;;;;;7.10;1.17;;;6.00;99.90;;;;;;4965059;28;20874;-68
2023/03/27 09:42:39;;;;;;;1.60;1.23;;;6.00;99.90;;;;;;4955570;28;20516;-68
2023/03/27 09:45:10;;;;;;;4.03;1.10;;;5.90;99.90;;;;;;4972588;28;20474;-68
2023/03/27 09:47:45;;;;;;;4.60;1.60;;;5.90;99.90;;;;;;4963246;28;20466;-68
2023/03/27 09:50:24;;;;;;;3.03;1.10;;;5.90;99.90;;;;;;4969906;28;21070;-68
2023/03/27 09:53:07;;;;;;;2.10;1.00;;;5.90;99.90;;;;;;4961364;28;20500;-68
2023/03/27 09:55:43;;;;;;;2.83;1.33;;;6.00;99.90;;;;;;4962032;28;20465;-68
2023/03/27 09:58:16;;;;;;;0.90;0.90;;;6.00;99.90;;;;;;4968187;28;20512;-68
2023/03/27 10:00:44;;;;;;;3.87;1.00;;;6.00;99.90;;;;;;4974018;28;20512;-68
2023/03/27 10:03:15;;;;;;;1.43;0.70;;;6.10;99.90;;;;;;4967753;28;20555;-68
2023/03/27 10:05:45;;;;;;;3.17;1.03;;;6.10;99.90;;;;;;4962800;28;20556;-69
2023/03/27 10:08:32;;;;;;;2.77;1.10;;;6.20;99.90;;;;;;4968566;28;20971;-69
2023/03/27 10:11:00;;;;;;;1.20;0.87;;;6.20;99.90;;;;;;4967850;28;20508;-69
2023/03/27 10:13:30;;;;;;;1.00;0.90;;;6.30;99.90;;;;;;4985079;28;21007;-67
2023/03/27 10:15:59;;;;;;;4.13;1.00;;;6.40;99.90;;;;;;4976834;28;20492;-67
2023/03/27 10:18:30;;;;;;;2.40;1.00;;;6.50;99.90;;;;;;4988621;28;20485;-68
2023/03/27 10:21:00;;;;;;;2.17;0.90;;;6.50;99.90;;;;;;4989209;28;20507;-68
2023/03/27 10:23:41;;;;;;;2.63;0.90;;;6.60;99.90;;;;;;4989028;28;20484;-68
2023/03/27 10:26:13;;;;;;;2.53;1.10;;;6.60;99.90;;;;;;4990673;28;20468;-68
2023/03/27 10:28:47;;;;;;;1.83;0.90;;;6.60;99.90;;;;;;4972655;28;20611;-68
2023/03/27 10:31:28;;;;;;;1.50;1.27;;;6.60;99.90;;;;;;4989411;28;20507;-68
2023/03/27 10:33:57;;;;;;;1.97;1.00;;;6.40;99.90;;;;;;4987309;28;20515;-67
2023/03/27 10:36:26;;;;;;;1.17;0.80;;;6.40;99.90;;;;;;4982645;28;20485;-68
2023/03/27 10:39:04;;;;;;;2.00;0.90;;;6.30;99.90;;;;;;4988769;28;20612;-68
2023/03/27 10:41:34;;;;;;;1.57;1.00;;;6.10;99.90;;;;;;4987642;28;20489;-73
2023/03/27 10:44:06;;;;;;;0.97;0.80;;;5.80;99.90;;;;;;4974059;28;20489;-68
2023/03/27 10:46:39;;;;;;;1.50;0.70;;;5.50;99.90;;;;;;4970529;28;20482;-68
2023/03/27 10:49:20;;;;;;;1.33;0.70;;;5.20;99.90;;;;;;4970788;28;20983;-67
2023/03/27 10:51:51;;;;;;;0.80;0.80;;;4.90;99.90;;;;;;4957546;28;20489;-68
2023/03/27 10:54:34;;;;;;;1.10;0.73;;;4.60;99.90;;;;;;4988843;28;20827;-68
2023/03/27 10:57:05;;;;;;;1.17;0.80;;;4.40;99.90;;;;;;4986181;28;20805;-68
2023/03/27 10:59:42;;;;;;;1.00;0.90;;;4.30;99.90;;;;;;4984728;28;20501;-72
2023/03/27 11:02:17;;;;;;;1.47;0.90;;;4.20;99.90;;;;;;4983915;28;20937;-67
2023/03/27 11:04:51;;;;;;;0.80;0.80;;;4.20;99.90;;;;;;4962197;28;20481;-67
2023/03/27 11:07:27;;;;;;;3.20;0.80;;;4.30;99.90;;;;;;4964933;28;20473;-68
2023/03/27 11:10:03;;;;;;;0.70;0.70;;;4.40;99.90;;;;;;4962304;28;20483;-68
2023/03/27 11:12:35;;;;;;;2.70;1.07;;;4.60;99.90;;;;;;4967835;28;20497;-68
2023/03/27 11:15:10;;;;;;;0.80;0.80;;;4.70;99.90;;;;;;4963904;28;20557;-67
2023/03/27 11:17:46;;;;;;;1.57;0.73;;;4.90;99.90;;;;;;4959239;28;21014;-68
2023/03/27 11:20:21;;;;;;;1.83;0.93;;;5.10;99.90;;;;;;4967317;28;20501;-67
2023/03/27 11:22:59;;;;;;;0.77;0.70;;;5.30;99.90;;;;;;4962868;28;20924;-68
2023/03/27 11:25:37;;;;;;;1.83;1.03;;;5.50;99.90;;;;;;4969163;28;20478;-68
2023/03/27 11:28:19;;;;;;;2.80;1.00;;;5.70;99.90;;;;;;4967496;28;20478;-68
2023/03/27 11:30:51;;;;;;;1.10;1.00;;;5.90;99.90;;;;;;4955888;28;20880;-68
2023/03/27 11:33:38;;;;;;;0.80;0.67;;;6.10;99.90;;;;;;4950334;28;20566;-67
2023/03/27 11:36:16;;;;;;;1.43;1.10;;;6.40;99.90;;;;;;4961060;28;20561;-68
2023/03/27 11:38:51;;;;;;;1.60;1.10;;;6.60;99.90;;;;;;4939209;28;20489;-68
2023/03/27 11:41:20;;;;;;;1.40;1.00;;;6.70;99.90;;;;;;4964751;28;20497;-69
2023/03/27 11:43:48;;;;;;;2.87;0.93;;;6.80;99.90;;;;;;4959421;28;20870;-68
2023/03/27 11:46:32;;;;;;;3.83;0.90;;;6.70;99.90;;;;;;4957927;28;20474;-68
2023/03/27 11:49:10;;;;;;;2.43;1.23;;;6.60;99.90;;;;;;4952815;28;20483;-68
2023/03/27 11:51:56;;;;;;;1.27;1.10;;;6.50;99.90;;;;;;4960174;28;20855;-68
2023/03/27 11:54:38;;;;;;;2.07;0.60;;;6.20;99.90;;;;;;4964942;28;20466;-68
2023/03/27 11:57:17;;;;;;;0.80;0.70;;;5.80;99.90;;;;;;4966845;28;20481;-68
2023/03/27 12:00:09;;;;;;;0.70;0.53;;;5.40;99.90;;;;;;4954995;28;20944;-68
2023/03/27 12:03:16;;;;;;;3.23;1.20;;;5.00;99.90;;;;;;4953041;28;20497;-68
2023/03/27 12:05:58;;;;;;;0.50;0.50;;;4.80;99.90;;;;;;4962636;28;20541;-68
2023/03/27 12:08:39;;;;;;;1.43;0.50;;;4.80;99.90;;;;;;4965054;28;20489;-68
2023/03/27 12:11:10;;;;;;;1.00;0.90;;;4.80;99.90;;;;;;4958712;28;20504;-68
2023/03/27 12:14:09;;;;;;;1.33;0.80;;;5.10;99.90;;;;;;4945277;28;20501;-69
2023/03/27 12:17:01;;;;;;;1.03;0.80;;;5.30;99.90;;;;;;4962883;28;20576;-68
2023/03/27 12:19:46;;;;;;;0.50;0.50;;;5.50;99.90;;;;;;4968139;28;20493;-68
2023/03/27 12:22:28;;;;;;;1.37;0.80;;;5.70;99.90;;;;;;4959043;28;20965;-69
2023/03/27 12:25:20;;;;;;;2.73;1.17;;;5.90;99.90;;;;;;4970027;28;20470;-68
2023/03/27 12:28:00;;;;;;;1.90;0.70;;;6.10;99.90;;;;;;4966998;28;20473;-69
2023/03/27 12:30:42;;;;;;;1.63;1.00;;;6.30;99.90;;;;;;4958691;28;20494;-68
2023/03/27 12:33:28;;;;;;;2.03;0.80;;;6.60;99.90;;;;;;4958765;28;21042;-68
2023/03/27 12:36:00;;;;;;;4.00;0.90;;;6.80;99.90;;;;;;4958885;28;23057;-70
2023/03/27 12:38:30;;;;;;;0.80;0.80;;;7.30;99.90;;;;;;4957002;28;20478;-67
2023/03/27 12:41:12;;;;;;;1.00;1.00;;;7.60;99.90;;;;;;4959545;28;20498;-67
2023/03/27 12:43:44;;;;;;;3.80;0.97;;;7.80;99.90;;;;;;4948488;28;20505;-69
2023/03/27 12:46:30;;;;;;;2.60;1.03;;;7.80;99.90;;;;;;4960965;28;20477;-68
2023/03/27 12:49:04;;;;;;;2.10;1.00;;;7.60;99.90;;;;;;4964891;28;20470;-68
2023/03/27 12:51:43;;;;;;;3.40;1.00;;;7.40;99.90;;;;;;4967516;28;20496;-68
2023/03/27 12:54:26;;;;;;;4.10;0.90;;;7.10;99.90;;;;;;4960903;28;20482;-68
2023/03/27 12:57:03;;;;;;;1.43;0.90;;;6.90;99.90;;;;;;4960645;28;20549;-69
2023/03/27 12:59:37;;;;;;;2.13;0.80;;;6.60;99.90;;;;;;4962715;28;20505;-67
2023/03/27 13:02:45;;;;;;;1.10;1.00;;;6.50;99.90;;;;;;4954710;28;20505;-68
2023/03/27 13:05:36;;;;;;;1.47;1.10;;;6.40;99.90;;;;;;4941719;28;20482;-69
2023/03/27 13:08:33;;;;;;;1.33;1.00;;;6.40;99.90;;;;;;4967270;28;20472;-67
2023/03/27 13:11:12;;;;;;;3.30;2.30;;;6.40;99.90;;;;;;4946203;28;20496;-67
2023/03/27 13:14:06;;;;;;;3.67;1.10;;;6.40;99.90;;;;;;4962889;28;20994;-68
2023/03/27 13:16:52;;;;;;;2.23;0.90;;;6.30;99.90;;;;;;4951651;28;20477;-69
2023/03/27 13:19:34;;;;;;;3.23;1.53;;;6.20;99.90;;;;;;4946544;28;20475;-67
2023/03/27 13:22:24;;;;;;;2.13;1.00;;;6.20;99.90;;;;;;4953296;28;20493;-68
2023/03/27 13:25:09;;;;;;;2.47;1.10;;;6.10;99.90;;;;;;4949412;28;20470;-67
2023/03/27 13:27:51;;;;;;;1.63;0.80;;;6.00;99.90;;;;;;4953001;28;21753;-68
2023/03/27 13:30:39;;;;;;;0.80;0.70;;;6.00;99.90;;;;;;4949744;28;20986;-68